Time;durP1;ratioP1;P1;durP2;ratioP2;P2;SDS_P1;SDS_P2;PMS_P1;PMS_P2;Temp;Humidity;BMP_temperature;BMP_pressure;BME280_temperature;BME280_humidity;BME280_pressure;Samples;Min_cycle;Max_cycle;Signal;HPM_P1;HPM_P2
2023/03/05 00:01:33;;;;;;;17.80;11.77;;;21.60;99.90;;;;;;5033283;28;20029;-52
2023/03/05 00:03:59;;;;;;;18.45;12.07;;;21.50;99.90;;;;;;5033413;28;20013;-49
2023/03/05 00:06:27;;;;;;;18.88;11.27;;;21.60;99.90;;;;;;5033324;28;20029;-50
2023/03/05 00:08:55;;;;;;;21.05;12.63;;;21.60;99.90;;;;;;5033338;28;20489;-51
2023/03/05 00:11:21;;;;;;;18.45;11.57;;;21.60;99.90;;;;;;5032171;28;20029;-51
2023/03/05 00:13:50;;;;;;;16.33;11.80;;;21.60;99.90;;;;;;5033407;28;20104;-51
2023/03/05 00:16:16;;;;;;;17.98;11.27;;;21.50;99.90;;;;;;5033283;28;20022;-48
2023/03/05 00:18:42;;;;;;;16.52;12.32;;;21.50;99.90;;;;;;5033281;28;20041;-50
2023/03/05 00:21:23;;;;;;;16.85;11.55;;;21.50;99.90;;;;;;5032908;28;20036;-50
2023/03/05 00:23:50;;;;;;;14.85;10.82;;;21.50;99.90;;;;;;5032111;28;20067;-49
2023/03/05 00:26:21;;;;;;;18.63;11.63;;;21.50;99.90;;;;;;5032930;28;20022;-51
2023/03/05 00:28:49;;;;;;;16.80;11.30;;;21.50;99.90;;;;;;5032802;28;20369;-51
2023/03/05 00:31:29;;;;;;;18.02;11.90;;;21.50;99.90;;;;;;5033272;28;20441;-54
2023/03/05 00:33:57;;;;;;;17.05;11.38;;;21.50;99.90;;;;;;5031650;28;20025;-53
2023/03/05 00:36:24;;;;;;;17.75;11.38;;;21.50;99.90;;;;;;5025559;28;20013;-49
2023/03/05 00:38:49;;;;;;;15.38;10.68;;;21.40;99.90;;;;;;5028830;28;20398;-50
2023/03/05 00:41:15;;;;;;;15.27;10.50;;;21.40;99.90;;;;;;5028726;28;20048;-51
2023/03/05 00:43:41;;;;;;;18.38;10.55;;;21.40;99.90;;;;;;5030761;28;20034;-50
2023/03/05 00:46:07;;;;;;;17.80;11.32;;;21.40;99.90;;;;;;5030551;28;20139;-51
2023/03/05 00:48:33;;;;;;;18.92;11.18;;;21.40;99.90;;;;;;5030035;28;20148;-51
2023/03/05 00:50:59;;;;;;;18.30;11.38;;;21.40;99.90;;;;;;5029929;28;20405;-51
2023/03/05 00:53:25;;;;;;;18.65;12.80;;;21.40;99.90;;;;;;5030584;28;20040;-50
2023/03/05 00:55:50;;;;;;;19.20;11.40;;;21.40;99.90;;;;;;5030186;28;20026;-51
2023/03/05 00:58:16;;;;;;;15.82;10.80;;;21.40;99.90;;;;;;5030558;28;20249;-51
2023/03/05 01:00:42;;;;;;;19.48;11.32;;;21.30;99.90;;;;;;5028976;28;20029;-49
2023/03/05 01:03:08;;;;;;;15.80;10.38;;;21.30;99.90;;;;;;5030283;28;20030;-52
2023/03/05 01:05:34;;;;;;;18.63;10.82;;;21.30;99.90;;;;;;5028138;28;20018;-50
2023/03/05 01:08:00;;;;;;;18.10;11.02;;;21.30;99.90;;;;;;5045225;28;20022;-52
2023/03/05 01:10:27;;;;;;;13.93;9.27;;;21.30;99.90;;;;;;5029894;28;20140;-51
2023/03/05 01:12:55;;;;;;;14.75;10.30;;;21.30;99.90;;;;;;5029072;28;20029;-52
2023/03/05 01:15:20;;;;;;;15.50;9.93;;;21.30;99.90;;;;;;5029885;28;20033;-52
2023/03/05 01:17:46;;;;;;;17.15;10.55;;;21.20;99.90;;;;;;5032437;28;20026;-52
2023/03/05 01:20:14;;;;;;;16.05;10.48;;;21.20;99.90;;;;;;5032100;28;20029;-52
2023/03/05 01:22:40;;;;;;;16.40;11.40;;;21.20;99.90;;;;;;5030182;28;20044;-52
2023/03/05 01:25:06;;;;;;;18.67;10.00;;;21.20;99.90;;;;;;5030266;28;20520;-52
2023/03/05 01:27:33;;;;;;;15.38;9.27;;;21.20;99.90;;;;;;5031748;28;20428;-51
2023/03/05 01:29:59;;;;;;;14.63;9.07;;;21.20;99.90;;;;;;5031686;28;20026;-52
2023/03/05 01:32:24;;;;;;;15.50;10.00;;;21.20;99.90;;;;;;5031893;28;20029;-53
2023/03/05 01:34:50;;;;;;;14.18;9.45;;;21.20;99.90;;;;;;5031747;28;20447;-52
2023/03/05 01:37:16;;;;;;;13.93;9.82;;;21.20;99.90;;;;;;5032035;28;20037;-52
2023/03/05 01:39:42;;;;;;;18.00;9.02;;;21.10;99.90;;;;;;5031407;28;20184;-52
2023/03/05 01:42:07;;;;;;;15.25;9.98;;;21.10;99.90;;;;;;5031866;28;20083;-52
2023/03/05 01:44:34;;;;;;;15.45;8.75;;;21.20;99.90;;;;;;5031703;28;20056;-52
2023/03/05 01:46:59;;;;;;;15.18;9.40;;;21.10;99.90;;;;;;5031924;28;20022;-52
2023/03/05 01:49:26;;;;;;;13.00;9.35;;;21.10;99.90;;;;;;5030375;28;20018;-52
2023/03/05 01:51:55;;;;;;;14.68;8.88;;;21.10;99.90;;;;;;5032024;28;20025;-52
2023/03/05 01:54:27;;;;;;;13.23;8.90;;;21.10;99.90;;;;;;5031523;28;20477;-53
2023/03/05 01:56:56;;;;;;;16.80;9.63;;;21.10;99.90;;;;;;5031700;28;20128;-52
2023/03/05 01:59:24;;;;;;;15.23;9.10;;;21.00;99.90;;;;;;5032057;28;20021;-53
2023/03/05 02:01:51;;;;;;;;;;;21.00;99.90;;;;;;5032229;28;20387;-52
2023/03/05 02:04:18;;;;;;;16.05;8.95;;;21.00;99.90;;;;;;5031807;28;19956;-53
2023/03/05 02:06:45;;;;;;;12.75;8.05;;;21.00;99.90;;;;;;5031530;28;20040;-52
2023/03/05 02:09:11;;;;;;;12.27;7.72;;;21.00;99.90;;;;;;5031659;28;20025;-53
2023/03/05 02:11:37;;;;;;;12.32;8.55;;;21.00;99.90;;;;;;5031281;28;20063;-52
2023/03/05 02:14:05;;;;;;;12.27;8.52;;;20.90;99.90;;;;;;5031759;28;20037;-53
2023/03/05 02:16:35;;;;;;;13.38;8.00;;;20.90;99.90;;;;;;5014004;28;20064;-52
2023/03/05 02:19:07;;;;;;;11.15;8.13;;;20.90;99.90;;;;;;5031619;28;20386;-53
2023/03/05 02:21:59;;;;;;;13.50;8.18;;;20.90;99.90;;;;;;5030348;28;20433;-52
2023/03/05 02:24:35;;;;;;;11.85;8.55;;;20.90;99.90;;;;;;5029592;28;20064;-52
2023/03/05 02:27:02;;;;;;;12.18;8.50;;;20.80;99.90;;;;;;5017491;28;20433;-52
2023/03/05 02:29:30;;;;;;;12.13;8.38;;;20.80;99.90;;;;;;5030277;28;20064;-52
2023/03/05 02:31:56;;;;;;;11.40;8.25;;;20.80;99.90;;;;;;5031140;28;20038;-52
2023/03/05 02:34:22;;;;;;;11.48;8.10;;;20.80;99.90;;;;;;5030221;28;20075;-52
2023/03/05 02:36:49;;;;;;;11.85;7.32;;;20.80;99.90;;;;;;5031286;28;20036;-52
2023/03/05 02:39:16;;;;;;;9.15;6.97;;;20.80;99.90;;;;;;5031189;28;20034;-52
2023/03/05 02:41:42;;;;;;;10.45;7.82;;;20.80;99.90;;;;;;5031311;28;20387;-52
2023/03/05 02:44:08;;;;;;;11.15;7.60;;;20.80;99.90;;;;;;5031734;28;20373;-52
2023/03/05 02:46:34;;;;;;;12.00;7.38;;;20.70;99.90;;;;;;5031359;28;20052;-52
2023/03/05 02:49:00;;;;;;;9.82;7.35;;;20.70;99.90;;;;;;5034906;28;20159;-52
2023/03/05 02:51:26;;;;;;;10.70;7.55;;;20.70;99.90;;;;;;5034690;28;20037;-52
2023/03/05 02:53:52;;;;;;;9.40;6.57;;;20.70;99.90;;;;;;5035046;28;20018;-52
2023/03/05 02:56:18;;;;;;;10.23;7.22;;;20.70;99.90;;;;;;5035020;28;20022;-52
2023/03/05 02:58:43;;;;;;;9.95;7.13;;;20.70;99.90;;;;;;5034708;28;20389;-52
2023/03/05 03:01:09;;;;;;;11.43;7.30;;;20.70;99.90;;;;;;5035064;28;20117;-52
2023/03/05 03:03:35;;;;;;;9.85;7.15;;;20.70;99.90;;;;;;5034432;28;20017;-52
2023/03/05 03:06:02;;;;;;;10.30;6.50;;;20.60;99.90;;;;;;5034730;28;20052;-52
2023/03/05 03:08:27;;;;;;;9.27;7.20;;;20.70;99.90;;;;;;5034477;28;20109;-52
2023/03/05 03:10:55;;;;;;;11.50;6.75;;;20.60;99.90;;;;;;5034365;28;20442;-52
2023/03/05 03:13:24;;;;;;;9.90;6.47;;;20.60;99.90;;;;;;5034613;28;20058;-52
2023/03/05 03:15:50;;;;;;;8.15;6.38;;;20.60;99.90;;;;;;5034593;28;20547;-52
2023/03/05 03:18:15;;;;;;;9.40;6.63;;;20.50;99.90;;;;;;5034266;28;20025;-52
2023/03/05 03:20:41;;;;;;;9.90;6.85;;;20.60;99.90;;;;;;5034369;28;20044;-52
2023/03/05 03:23:07;;;;;;;8.55;6.22;;;20.50;99.90;;;;;;5034186;28;20113;-52
2023/03/05 03:25:33;;;;;;;8.50;5.90;;;20.50;99.90;;;;;;5034048;28;20075;-52
2023/03/05 03:27:59;;;;;;;8.30;5.78;;;20.50;99.90;;;;;;5034199;28;20543;-52
2023/03/05 03:30:24;;;;;;;9.73;6.57;;;20.60;99.90;;;;;;5034090;28;20018;-52
2023/03/05 03:32:51;;;;;;;8.90;6.18;;;20.50;99.90;;;;;;5033198;28;20013;-52
2023/03/05 03:35:17;;;;;;;9.80;7.10;;;20.50;99.90;;;;;;5033908;28;20021;-52
2023/03/05 03:37:43;;;;;;;10.82;6.30;;;20.50;99.90;;;;;;5032779;28;20549;-52
2023/03/05 03:40:10;;;;;;;9.10;6.68;;;20.50;99.90;;;;;;5033655;28;20064;-52
2023/03/05 03:42:36;;;;;;;13.10;6.85;;;20.50;99.90;;;;;;5033861;28;20473;-52
2023/03/05 03:45:02;;;;;;;8.68;5.70;;;20.50;99.90;;;;;;5033671;28;20036;-52
2023/03/05 03:47:29;;;;;;;9.05;5.75;;;20.50;99.90;;;;;;5033861;28;20022;-52
2023/03/05 03:49:55;;;;;;;8.13;5.83;;;20.40;99.90;;;;;;5034032;28;20024;-52
2023/03/05 03:52:21;;;;;;;7.68;5.85;;;20.40;99.90;;;;;;5033766;28;20021;-52
2023/03/05 03:54:51;;;;;;;7.45;5.35;;;20.40;99.90;;;;;;5033821;28;20033;-52
2023/03/05 03:57:16;;;;;;;7.72;5.70;;;20.40;99.90;;;;;;5033612;28;20547;-52
2023/03/05 03:59:44;;;;;;;9.05;6.22;;;20.40;99.90;;;;;;5044060;23;20054;-49
2023/03/05 04:02:10;;;;;;;9.75;6.63;;;20.40;99.90;;;;;;5033457;28;20030;-47
2023/03/05 04:04:36;;;;;;;8.82;5.93;;;20.40;99.90;;;;;;5033549;28;20032;-47
2023/03/05 04:07:02;;;;;;;7.75;6.15;;;20.30;99.90;;;;;;5033540;28;20025;-47
2023/03/05 04:09:27;;;;;;;8.00;6.05;;;20.40;99.90;;;;;;5033521;28;20025;-47
2023/03/05 04:11:53;;;;;;;7.72;5.60;;;20.30;99.90;;;;;;5033539;28;20021;-47
2023/03/05 04:14:19;;;;;;;8.88;6.15;;;20.30;99.90;;;;;;5033386;28;20107;-47
2023/03/05 04:16:45;;;;;;;8.32;5.63;;;20.30;99.90;;;;;;5031798;28;20025;-47
2023/03/05 04:19:10;;;;;;;7.75;5.35;;;20.30;99.90;;;;;;5033122;28;20026;-48
2023/03/05 04:21:36;;;;;;;7.50;5.05;;;20.30;99.90;;;;;;5031865;28;20485;-47
2023/03/05 04:24:02;;;;;;;7.85;5.25;;;20.30;99.90;;;;;;5033379;28;20025;-48
2023/03/05 04:26:28;;;;;;;10.27;5.10;;;20.30;99.90;;;;;;5033000;28;20025;-47
2023/03/05 04:28:54;;;;;;;8.27;5.50;;;20.30;99.90;;;;;;5033410;28;20033;-48
2023/03/05 04:31:19;;;;;;;7.95;5.55;;;20.20;99.90;;;;;;5032956;28;20377;-48
2023/03/05 04:33:45;;;;;;;7.97;5.30;;;20.30;99.90;;;;;;5032999;28;20022;-47
2023/03/05 04:36:11;;;;;;;6.03;4.82;;;20.30;99.90;;;;;;5032950;28;20036;-47
2023/03/05 04:38:37;;;;;;;7.57;4.85;;;20.30;99.90;;;;;;5031611;28;20025;-47
2023/03/05 04:41:03;;;;;;;8.07;5.50;;;20.20;99.90;;;;;;5032759;28;20037;-48
2023/03/05 04:43:28;;;;;;;9.07;4.90;;;20.20;99.90;;;;;;5032986;28;20108;-48
2023/03/05 04:45:54;;;;;;;6.60;4.90;;;20.20;99.90;;;;;;5032976;28;20026;-50
2023/03/05 04:48:20;;;;;;;6.82;4.70;;;20.20;99.90;;;;;;5032636;28;20014;-47
2023/03/05 04:50:46;;;;;;;7.28;5.18;;;20.20;99.90;;;;;;5032763;28;20105;-52
2023/03/05 04:53:12;;;;;;;6.00;4.72;;;20.20;99.90;;;;;;5032485;28;20025;-48
2023/03/05 04:55:38;;;;;;;8.18;4.85;;;20.20;99.90;;;;;;5032669;28;20037;-48
2023/03/05 04:58:03;;;;;;;7.30;4.75;;;20.20;99.90;;;;;;5032568;28;20056;-48
2023/03/05 05:00:29;;;;;;;6.97;5.10;;;20.20;99.90;;;;;;5043562;23;20103;-51
2023/03/05 05:02:55;;;;;;;6.35;4.35;;;20.10;99.90;;;;;;5032602;28;20037;-50
2023/03/05 05:05:24;;;;;;;6.80;5.00;;;20.10;99.90;;;;;;5032294;28;20025;-52
2023/03/05 05:07:53;;;;;;;8.27;5.20;;;20.10;99.90;;;;;;5032536;28;20029;-52
2023/03/05 05:10:18;;;;;;;7.30;4.65;;;20.10;99.90;;;;;;5031950;28;20025;-50
2023/03/05 05:12:44;;;;;;;6.43;4.70;;;20.10;99.90;;;;;;5032175;28;20026;-50
2023/03/05 05:15:11;;;;;;;6.55;4.53;;;20.10;99.90;;;;;;5032187;28;20043;-50
2023/03/05 05:17:37;;;;;;;5.83;4.27;;;20.10;99.90;;;;;;5032204;28;20033;-50
2023/03/05 05:20:05;;;;;;;5.85;4.30;;;20.10;99.90;;;;;;5031994;28;20489;-50
2023/03/05 05:22:32;;;;;;;6.25;4.53;;;20.10;99.90;;;;;;5032051;28;20045;-51
2023/03/05 05:24:57;;;;;;;6.03;4.40;;;20.10;99.90;;;;;;5032245;28;20026;-50
2023/03/05 05:27:23;;;;;;;6.75;4.43;;;20.10;99.90;;;;;;5031851;28;20021;-52
2023/03/05 05:29:49;;;;;;;6.82;4.65;;;20.10;99.90;;;;;;5032282;28;20026;-52
2023/03/05 05:32:17;;;;;;;7.13;4.68;;;20.00;99.90;;;;;;5031907;28;20470;-50
2023/03/05 05:34:42;;;;;;;5.10;4.05;;;20.00;99.90;;;;;;5032047;28;20416;-50
2023/03/05 05:37:08;;;;;;;5.93;4.20;;;20.00;99.90;;;;;;5031745;28;20109;-50
2023/03/05 05:39:35;;;;;;;6.28;4.22;;;20.00;99.90;;;;;;5031884;28;20041;-50
2023/03/05 05:42:00;;;;;;;7.88;4.53;;;20.00;99.90;;;;;;5031848;28;20021;-51
2023/03/05 05:44:26;;;;;;;5.25;4.18;;;20.00;99.90;;;;;;5030920;28;20029;-51
2023/03/05 05:46:52;;;;;;;6.32;4.22;;;20.00;99.90;;;;;;5031877;28;20034;-51
2023/03/05 05:49:18;;;;;;;5.25;3.85;;;20.00;99.90;;;;;;5031853;28;20028;-51
2023/03/05 05:51:43;;;;;;;6.18;3.65;;;20.00;99.90;;;;;;5031789;28;20152;-51
2023/03/05 05:54:14;;;;;;;6.15;4.35;;;20.00;99.90;;;;;;5031587;28;20076;-51
2023/03/05 05:56:40;;;;;;;4.15;3.30;;;20.00;99.90;;;;;;5031762;28;20033;-51
2023/03/05 05:59:06;;;;;;;6.35;4.13;;;20.00;99.90;;;;;;5031848;28;20528;-51
2023/03/05 06:01:32;;;;;;;6.70;4.25;;;20.00;99.90;;;;;;5031645;28;20088;-51
2023/03/05 06:03:59;;;;;;;5.70;4.15;;;20.00;99.90;;;;;;5032180;28;20028;-51
2023/03/05 06:06:26;;;;;;;6.32;4.25;;;19.90;99.90;;;;;;5031818;28;20474;-51
2023/03/05 06:08:53;;;;;;;5.97;4.15;;;20.00;99.90;;;;;;5018856;28;20021;-51
2023/03/05 06:11:20;;;;;;;6.65;4.15;;;19.90;99.90;;;;;;5031572;28;20053;-51
2023/03/05 06:13:46;;;;;;;6.47;4.23;;;19.90;99.90;;;;;;5031728;28;20029;-51
2023/03/05 06:16:16;;;;;;;6.27;4.40;;;19.90;99.90;;;;;;5031790;28;20099;-51
2023/03/05 06:18:42;;;;;;;6.93;4.03;;;19.90;99.90;;;;;;5031436;28;20060;-51
2023/03/05 06:21:13;;;;;;;5.82;3.67;;;19.90;99.90;;;;;;5031544;28;20033;-51
2023/03/05 06:23:39;;;;;;;5.43;4.07;;;19.90;99.90;;;;;;5034839;28;20025;-51
2023/03/05 06:26:07;;;;;;;5.43;3.72;;;19.90;99.90;;;;;;5035394;28;20014;-51
2023/03/05 06:28:33;;;;;;;5.72;4.22;;;19.90;99.90;;;;;;5035467;28;20024;-51
2023/03/05 06:31:11;;;;;;;5.78;4.13;;;19.90;99.90;;;;;;5035559;28;20108;-51
2023/03/05 06:33:38;;;;;;;6.13;4.25;;;19.90;99.90;;;;;;5035223;28;20045;-51
2023/03/05 06:36:08;;;;;;;5.93;3.90;;;19.90;99.90;;;;;;5035321;28;20029;-51
2023/03/05 06:38:35;;;;;;;5.57;3.70;;;19.80;99.90;;;;;;5035077;28;20017;-51
2023/03/05 06:41:08;;;;;;;4.75;3.35;;;19.90;99.90;;;;;;5035306;28;20040;-51
2023/03/05 06:43:36;;;;;;;6.35;3.70;;;19.90;99.90;;;;;;5035189;28;20041;-51
2023/03/05 06:46:19;;;;;;;5.80;3.95;;;19.90;99.90;;;;;;5035351;28;20083;-52
2023/03/05 06:48:46;;;;;;;6.28;3.35;;;19.80;99.90;;;;;;5034742;28;20421;-51
2023/03/05 06:51:38;;;;;;;5.50;3.42;;;19.80;99.90;;;;;;5034996;28;20159;-51
2023/03/05 06:54:07;;;;;;;6.15;4.05;;;19.80;99.90;;;;;;5023164;28;20056;-52
2023/03/05 06:56:35;;;;;;;7.65;4.80;;;19.80;99.90;;;;;;5033690;28;20060;-51
2023/03/05 06:59:01;;;;;;;6.03;3.95;;;19.80;99.90;;;;;;5034890;28;20025;-52
2023/03/05 07:01:26;;;;;;;5.95;3.97;;;19.80;99.90;;;;;;5034224;28;20059;-51
2023/03/05 07:03:54;;;;;;;4.65;3.60;;;19.80;99.90;;;;;;5034464;28;20105;-52
2023/03/05 07:06:21;;;;;;;6.13;3.85;;;19.80;99.90;;;;;;5034567;28;20071;-51
2023/03/05 07:08:47;;;;;;;4.95;3.35;;;19.80;99.90;;;;;;5034604;28;20021;-51
2023/03/05 07:11:18;;;;;;;4.82;3.80;;;19.80;99.90;;;;;;5034444;28;20059;-51
2023/03/05 07:13:46;;;;;;;7.47;4.38;;;19.80;99.90;;;;;;5034259;28;20022;-51
2023/03/05 07:16:24;;;;;;;4.32;3.50;;;19.80;99.90;;;;;;5034368;28;20509;-53
2023/03/05 07:18:50;;;;;;;6.00;3.80;;;19.80;99.90;;;;;;5031609;28;20029;-52
2023/03/05 07:21:19;;;;;;;6.10;3.78;;;19.80;99.90;;;;;;5034382;28;20033;-52
2023/03/05 07:23:45;;;;;;;4.63;3.55;;;19.80;99.90;;;;;;5034139;28;20056;-52
2023/03/05 07:26:11;;;;;;;4.35;3.40;;;19.80;99.90;;;;;;5034130;28;20030;-52
2023/03/05 07:28:37;;;;;;;6.25;3.33;;;19.80;99.90;;;;;;5034271;28;20006;-52
2023/03/05 07:31:09;;;;;;;5.63;3.42;;;19.80;99.90;;;;;;5034333;28;20351;-51
2023/03/05 07:33:36;;;;;;;4.40;3.50;;;19.80;99.90;;;;;;5033886;28;20041;-52
2023/03/05 07:36:03;;;;;;;4.25;2.90;;;19.80;99.90;;;;;;5034210;28;20064;-51
2023/03/05 07:38:30;;;;;;;3.97;3.13;;;19.80;99.90;;;;;;5033576;28;20115;-51
2023/03/05 07:41:00;;;;;;;6.43;3.53;;;19.80;99.90;;;;;;5032488;28;20038;-52
2023/03/05 07:43:26;;;;;;;11.07;4.75;;;19.90;99.90;;;;;;5033761;28;20045;-52
2023/03/05 07:45:52;;;;;;;9.45;4.25;;;19.80;99.90;;;;;;5033619;28;20517;-54
2023/03/05 07:48:21;;;;;;;10.43;4.30;;;19.90;99.90;;;;;;5025120;28;20226;-50
2023/03/05 07:50:47;;;;;;;9.57;3.83;;;19.90;99.90;;;;;;5028305;28;20071;-51
2023/03/05 07:53:14;;;;;;;7.47;4.43;;;19.90;99.90;;;;;;5028326;28;20046;-51
2023/03/05 07:55:43;;;;;;;8.48;3.40;;;19.90;99.90;;;;;;5029360;28;20041;-51
2023/03/05 07:58:10;;;;;;;8.23;3.78;;;19.90;99.90;;;;;;5031318;28;20025;-51
2023/03/05 08:00:36;;;;;;;7.50;3.88;;;19.90;99.90;;;;;;5027958;28;20103;-51
2023/03/05 08:03:02;;;;;;;3.75;3.33;;;19.90;99.90;;;;;;5030790;28;20025;-51
2023/03/05 08:05:28;;;;;;;5.40;3.15;;;19.90;99.90;;;;;;5031533;28;20056;-51
2023/03/05 08:07:53;;;;;;;6.68;3.58;;;19.90;99.90;;;;;;5030770;28;20485;-51
2023/03/05 08:10:19;;;;;;;8.88;2.75;;;19.90;99.90;;;;;;5027362;28;20049;-50
2023/03/05 08:12:45;;;;;;;6.40;3.10;;;19.90;99.90;;;;;;5030594;28;20049;-50
2023/03/05 08:15:11;;;;;;;9.07;2.78;;;20.00;99.90;;;;;;5029887;28;20035;-50
2023/03/05 08:17:37;;;;;;;5.75;2.53;;;19.90;99.90;;;;;;5030932;28;20030;-50
2023/03/05 08:20:04;;;;;;;8.85;3.13;;;20.00;99.90;;;;;;5030620;28;20117;-50
2023/03/05 08:22:33;;;;;;;5.55;3.20;;;20.00;99.90;;;;;;5028125;28;20029;-51
2023/03/05 08:25:00;;;;;;;6.63;2.75;;;20.00;99.90;;;;;;5030044;28;20033;-50
2023/03/05 08:27:26;;;;;;;4.25;2.70;;;20.00;99.90;;;;;;5030998;28;20056;-51
2023/03/05 08:29:52;;;;;;;4.28;2.53;;;20.00;99.90;;;;;;5030468;28;20036;-50
2023/03/05 08:32:18;;;;;;;4.60;2.50;;;20.00;99.90;;;;;;5030412;28;20026;-50
2023/03/05 08:34:44;;;;;;;4.57;2.53;;;20.00;99.90;;;;;;5026936;28;20053;-51
2023/03/05 08:37:09;;;;;;;4.55;2.95;;;20.00;99.90;;;;;;5029067;28;20029;-51
2023/03/05 08:39:36;;;;;;;4.28;2.85;;;20.00;99.90;;;;;;5030666;28;20417;-51
2023/03/05 08:42:03;;;;;;;4.13;3.10;;;20.00;99.90;;;;;;5030251;28;20037;-51
2023/03/05 08:44:28;;;;;;;4.35;2.90;;;20.00;99.90;;;;;;5029775;28;20033;-50
2023/03/05 08:46:54;;;;;;;4.97;2.78;;;20.00;99.90;;;;;;5029997;28;20083;-50
2023/03/05 08:49:20;;;;;;;5.32;3.38;;;20.00;99.90;;;;;;5030293;28;20025;-50
2023/03/05 08:51:46;;;;;;;5.47;3.00;;;20.00;99.90;;;;;;5030190;28;20099;-51
2023/03/05 08:54:11;;;;;;;5.07;3.25;;;20.00;99.90;;;;;;5029696;28;20022;-51
2023/03/05 08:56:37;;;;;;;7.25;2.97;;;20.10;99.90;;;;;;5030413;28;20021;-50
2023/03/05 08:59:03;;;;;;;4.43;2.88;;;20.10;99.90;;;;;;5029911;28;20014;-51
2023/03/05 09:01:30;;;;;;;5.50;2.88;;;20.00;99.90;;;;;;5029417;28;20132;-51
2023/03/05 09:03:58;;;;;;;8.05;3.08;;;20.10;99.90;;;;;;5029572;28;20017;-51
2023/03/05 09:06:24;;;;;;;5.95;2.72;;;20.10;99.90;;;;;;5029994;28;20037;-51
2023/03/05 09:08:51;;;;;;;5.55;3.30;;;20.10;99.90;;;;;;5029773;28;20100;-52
2023/03/05 09:11:16;;;;;;;4.57;2.78;;;20.10;99.90;;;;;;5029790;28;20564;-51
2023/03/05 09:13:42;;;;;;;5.07;2.90;;;20.10;99.90;;;;;;5029880;28;20101;-52
2023/03/05 09:16:12;;;;;;;4.68;2.95;;;20.10;99.90;;;;;;5029473;28;20021;-52
2023/03/05 09:18:39;;;;;;;6.97;3.53;;;20.10;99.90;;;;;;5029150;28;20013;-51
2023/03/05 09:21:07;;;;;;;7.40;3.13;;;20.10;99.90;;;;;;5029905;28;20044;-52
2023/03/05 09:23:33;;;;;;;5.55;3.60;;;20.10;99.90;;;;;;5028515;28;20029;-52
2023/03/05 09:25:59;;;;;;;6.53;3.90;;;20.10;99.90;;;;;;5029365;28;20032;-52
2023/03/05 09:28:24;;;;;;;7.40;3.80;;;20.20;99.90;;;;;;5029867;28;20493;-52
2023/03/05 09:30:50;;;;;;;13.15;3.70;;;20.10;99.90;;;;;;5029241;28;20402;-52
2023/03/05 09:33:16;;;;;;;7.40;3.80;;;20.20;99.90;;;;;;5029611;28;20025;-52
2023/03/05 09:35:42;;;;;;;8.75;3.53;;;20.20;99.90;;;;;;5026266;28;20026;-52
2023/03/05 09:38:07;;;;;;;12.27;3.65;;;20.20;99.90;;;;;;5029235;28;20029;-51
2023/03/05 09:40:43;;;;;;;7.70;4.10;;;20.20;99.90;;;;;;5029349;28;20030;-51
2023/03/05 09:43:41;;;;;;;7.82;3.60;;;20.20;99.90;;;;;;5027697;28;20022;-51
2023/03/05 09:46:29;;;;;;;5.32;3.92;;;20.20;99.90;;;;;;5026024;28;20035;-51
2023/03/05 09:49:31;;;;;;;9.25;4.63;;;20.20;99.90;;;;;;5029039;28;20021;-51
2023/03/05 09:52:06;;;;;;;6.68;4.20;;;20.20;99.90;;;;;;5028950;28;20040;-52
2023/03/05 09:54:40;;;;;;;7.32;4.70;;;20.20;99.90;;;;;;5029334;28;20494;-52
2023/03/05 09:57:17;;;;;;;11.80;4.63;;;20.20;99.90;;;;;;5029992;28;20052;-53
2023/03/05 10:00:07;;;;;;;10.07;4.28;;;20.20;99.90;;;;;;5030939;28;20071;-52
2023/03/05 10:02:40;;;;;;;9.10;4.78;;;20.30;99.90;;;;;;5032711;28;20037;-53
2023/03/05 10:05:26;;;;;;;9.10;5.00;;;20.30;99.90;;;;;;5032858;28;20061;-53
2023/03/05 10:08:04;;;;;;;11.82;4.30;;;20.30;99.90;;;;;;5031764;28;20022;-53
2023/03/05 10:10:47;;;;;;;6.10;3.95;;;20.30;99.90;;;;;;5033569;28;20025;-53
2023/03/05 10:13:23;;;;;;;6.97;4.70;;;20.30;99.90;;;;;;5031280;28;20026;-53
2023/03/05 10:15:57;;;;;;;10.38;4.13;;;20.30;99.90;;;;;;5032892;28;20049;-53
2023/03/05 10:18:37;;;;;;;11.07;4.43;;;20.40;99.90;;;;;;5032807;28;20045;-55
2023/03/05 10:21:17;;;;;;;9.85;4.18;;;20.40;99.90;;;;;;5032818;28;20474;-53
2023/03/05 10:23:42;;;;;;;7.50;3.80;;;20.40;99.90;;;;;;5033337;28;20079;-53
2023/03/05 10:26:17;;;;;;;7.00;4.35;;;20.40;99.90;;;;;;5032395;28;20026;-52
2023/03/05 10:28:52;;;;;;;8.00;4.78;;;20.40;99.90;;;;;;5033216;28;20021;-53
2023/03/05 10:31:47;;;;;;;28.38;6.97;;;20.40;99.90;;;;;;5032724;28;20037;-52
2023/03/05 10:34:42;;;;;;;25.92;6.57;;;20.50;99.90;;;;;;5018574;28;20030;-51
2023/03/05 10:37:38;;;;;;;16.33;6.20;;;20.50;99.90;;;;;;5031482;28;20033;-51
2023/03/05 10:40:17;;;;;;;17.52;6.03;;;20.50;99.90;;;;;;5031148;28;20033;-51
2023/03/05 10:43:04;;;;;;;11.52;6.53;;;20.50;99.90;;;;;;5032699;28;20040;-52
2023/03/05 10:45:37;;;;;;;13.25;6.82;;;20.60;99.90;;;;;;5032135;28;20018;-51
2023/03/05 10:48:24;;;;;;;14.55;5.90;;;20.60;99.90;;;;;;5032376;28;20033;-51
2023/03/05 10:50:56;;;;;;;15.75;7.65;;;20.60;99.90;;;;;;5032944;28;20024;-51
2023/03/05 10:53:39;;;;;;;15.88;7.18;;;20.60;99.90;;;;;;5032579;28;20112;-51
2023/03/05 10:56:05;;;;;;;16.08;7.45;;;20.60;99.90;;;;;;5032333;28;20039;-53
2023/03/05 10:58:32;;;;;;;15.35;7.40;;;20.60;99.90;;;;;;5031950;28;20072;-52
2023/03/05 11:01:05;;;;;;;16.30;6.40;;;20.60;99.90;;;;;;5032507;28;20107;-52
2023/03/05 11:04:15;;;;;;;13.23;7.10;;;20.60;99.90;;;;;;5032420;28;20022;-52
2023/03/05 11:06:44;;;;;;;15.00;7.45;;;20.70;99.90;;;;;;5028833;28;20460;-50
2023/03/05 11:09:31;;;;;;;17.83;7.90;;;20.70;99.90;;;;;;5031575;28;20017;-51
2023/03/05 11:12:12;;;;;;;16.50;7.90;;;20.80;99.90;;;;;;5032371;28;20389;-50
2023/03/05 11:15:13;;;;;;;16.52;7.70;;;20.80;99.90;;;;;;5031921;28;20021;-50
2023/03/05 11:17:43;;;;;;;20.20;9.10;;;20.80;99.90;;;;;;5028588;28;20029;-50
2023/03/05 11:20:30;;;;;;;17.10;8.60;;;20.80;99.90;;;;;;5028721;28;20024;-52
2023/03/05 11:23:05;;;;;;;14.07;8.07;;;20.90;99.90;;;;;;5032022;28;20041;-50
2023/03/05 11:25:33;;;;;;;17.98;8.80;;;20.80;99.90;;;;;;5031329;28;20105;-52
2023/03/05 11:28:01;;;;;;;19.58;10.07;;;20.90;99.90;;;;;;5032059;28;20417;-50
2023/03/05 11:30:30;;;;;;;19.70;8.25;;;20.90;99.90;;;;;;5031513;28;20025;-48
2023/03/05 11:33:18;;;;;;;16.52;8.13;;;20.90;99.90;;;;;;5031818;28;20037;-48
2023/03/05 11:35:44;;;;;;;16.23;8.45;;;20.90;99.90;;;;;;5031261;28;20104;-49
2023/03/05 11:38:25;;;;;;;17.58;9.00;;;21.00;99.90;;;;;;5030426;28;20530;-48
2023/03/05 11:40:54;;;;;;;21.33;7.90;;;21.00;99.90;;;;;;5028235;28;20043;-49
2023/03/05 11:43:23;;;;;;;13.90;8.20;;;21.00;99.90;;;;;;5031373;28;20036;-49
2023/03/05 11:45:56;;;;;;;15.20;8.88;;;21.00;99.90;;;;;;5027431;28;20022;-48
2023/03/05 11:48:31;;;;;;;19.70;8.93;;;21.00;99.90;;;;;;5031363;28;20024;-49
2023/03/05 11:51:01;;;;;;;13.07;7.95;;;20.90;99.90;;;;;;5031540;28;20025;-48
2023/03/05 11:53:31;;;;;;;15.57;8.63;;;20.90;99.90;;;;;;5031680;28;20025;-49
2023/03/05 11:56:44;;;;;;;16.27;8.45;;;21.00;99.90;;;;;;5030950;28;20488;-49
2023/03/05 11:59:16;;;;;;;22.23;9.07;;;20.90;99.90;;;;;;5026656;28;20075;-49
2023/03/05 12:01:54;;;;;;;15.57;8.55;;;21.00;99.90;;;;;;5029726;28;20130;-49
2023/03/05 12:04:21;;;;;;;13.10;8.15;;;21.00;99.90;;;;;;5028006;28;20465;-49
2023/03/05 12:06:57;;;;;;;14.27;8.00;;;20.90;99.90;;;;;;5031168;28;20477;-49
2023/03/05 12:09:39;;;;;;;12.68;7.65;;;21.00;99.90;;;;;;5029741;28;20009;-49
2023/03/05 12:12:35;;;;;;;16.92;8.90;;;21.00;99.90;;;;;;5030956;28;20037;-49
2023/03/05 12:15:26;;;;;;;14.27;7.82;;;21.00;99.90;;;;;;5030638;28;20010;-49
2023/03/05 12:18:14;;;;;;;13.65;8.48;;;21.00;99.90;;;;;;5030935;28;20021;-49
2023/03/05 12:20:43;;;;;;;17.20;7.95;;;21.10;99.90;;;;;;5028105;28;20079;-48
2023/03/05 12:23:15;;;;;;;12.88;7.55;;;21.00;99.90;;;;;;5028051;28;20436;-49
2023/03/05 12:25:48;;;;;;;14.40;7.93;;;21.00;99.90;;;;;;5030496;28;20036;-49
2023/03/05 12:28:36;;;;;;;12.63;7.68;;;21.10;99.90;;;;;;5029205;28;20409;-49
2023/03/05 12:31:04;;;;;;;15.98;8.18;;;21.10;99.90;;;;;;5030818;28;20426;-49
2023/03/05 12:33:37;;;;;;;11.65;7.43;;;21.10;99.90;;;;;;5029511;28;20048;-49
2023/03/05 12:36:33;;;;;;;14.05;7.68;;;21.20;99.90;;;;;;5030553;28;20025;-54
2023/03/05 12:38:59;;;;;;;12.23;7.32;;;21.20;99.90;;;;;;5029744;28;20432;-54
2023/03/05 12:41:33;;;;;;;8.98;5.13;;;21.20;99.90;;;;;;5030293;28;20033;-54
2023/03/05 12:44:04;;;;;;;7.93;5.50;;;21.30;99.90;;;;;;5030384;28;20024;-53
2023/03/05 12:46:34;;;;;;;15.15;5.95;;;21.20;99.90;;;;;;5027726;28;20159;-53
2023/03/05 12:49:22;;;;;;;12.05;6.47;;;21.20;99.90;;;;;;5030299;28;20572;-52
2023/03/05 12:51:53;;;;;;;11.13;5.95;;;21.30;99.90;;;;;;5020701;28;20398;-52
2023/03/05 12:54:35;;;;;;;10.77;5.82;;;21.30;99.90;;;;;;5024799;28;20452;-52